Pagrindinis puslapis
METAR-TAF:

METAR-TAF

Oro uostai :

Ivalo, Suomija

platuma: 68-37N, ilguma: 027-25E, Aukštis: 147 m

Dabartinis oras

Ataskaita buvo paskelbta 22 minutes, ne 12:50 UTC
Vėjas 5 kt iš Rytų/Šiaurės Rytų
Temperatūra -2°C
Drėgmė 93%
Slėgis 996 hPa
Matomumas: 5000 m
Su prošvaistėmis ne aukštis 600 ft
Apsiniaukę ne aukštis 4200 ft
sniegas

METAR: EFIV 161250Z 06005KT 5000 -SN BKN006 OVC042 M02/M03 Q0996

Laikas: 15:12 (13:12 UTC)

Prognozė

Ataskaita buvo paskelbta 1 valandą ir 38 minutes, ne 11:34 UTC
Prognozė galioja nuo 16 metu 12 UTC su 16 metu 18 UTC
Vėjas 5 kt iš Rytų
Matomumas 10 km arba daugiau
Su prošvaistėmis ne aukštis 2000 ft
Laikinai
nuo 16 metu 12 UTC su 16 metu 18 UTC
Matomumas: 2000 m
Su prošvaistėmis ne aukštis 800 ft
sniegas

TAF: EFIV 161134Z 1612/1618 09005KT 9999 BKN020 TEMPO 1612/1618 2000 -SN BKN008

Orai ataskaitas ir orų prognozės (METAR, TAF).

turimą stotys yra geltonos ir raudonos taškus žemėlapyje.

Perkelti pele per norėdami pamatyti stoties vardą.

Tada spustelėkite, norėdami matyti oro stebėjimo ir prognozės.

Norėdami pakeisti žemėlapį: spustelėkite ant žalios mygtukų su juodo kryžiaus žemyn,; žalią mygtuką su brūkšneliu, jei norite nutolinti; arba žalių rodyklių gretimoms žemėlapius.


METAR-TAF: